Scott, MS (38772)

1:16 PM CDT on October 23, 2014 (GMT -0500)
MesoWest SCOTT MS US SCAN | Change Station
CLOSE
Current Station
Personal Weather Station
Location: Scott, MS
Elevation: 165 ft
Nearby Weather Stations

Elev 165 ft 33.62 °N, 91.10 °W | Updated 1 hour ago

Mostly Cloudy
Mostly Cloudy
60 °F
Feels Like 60 °F
N
1
Wind Variable Wind from NE
Gusts 0.0 mph

Today
High -- | Low -- °F
--% Chance of Precip.
Yesterday
High -- | Low -- °F
Precip. -- in
7:15 AM 6:21 PM
Waning Crescent, 0% visible
Pressure 30.18 in
Visibility 10.0 miles
Clouds Clear
Dew Point 47 °F
Humidity 62%
Rainfall -999.00 in
Snow Depth Not available.
UV 6 out of 12
Pollen 2.60 out of 12
Air Quality Not available.
Flu Activity No Activity
METAR KGLH 231753Z AUTO 33003KT 10SM CLR 17/08 A3016 RMK AO2 SLP219 T01720083 10172 20078 58012

More Conditions Fewer Conditions

Pressure 30.18 in
Visibility 10.0 miles
Clouds Clear
Dew Point 47 °F
Humidity 62%
Rainfall -999.00 in
Snow Depth Not available.
UV 6 out of 12
Pollen 2.60 out of 12
Air Quality Not available.
Flu Activity No Activity
METAR KGLH 231753Z AUTO 33003KT 10SM CLR 17/08 A3016 RMK AO2 SLP219 T01720083 10172 20078 58012

More Conditions Fewer Conditions

10-Day Weather Forecast

Almanac

Astronomy

Oct. 23, 2014 Rise Set
Actual Time 7:15 AM CDT 6:21 PM CDT
Civil Twilight 6:50 AM CDT 6:46 PM CDT
Nautical Twilight 6:21 AM CDT 7:15 PM CDT
Astronomical Twilight 5:52 AM CDT 7:44 PM CDT
Moon 6:56 AM CDT 6:23 PM CDT
Length of Visible Light 11h 56m
Length of Day
11h 05m
Tomorrow will be 1m 56s shorter.
Waning Crescent, 0% of the Moon is Illuminated
Today
Waning Crescent
Oct 23
New
Oct 30
First Quarter
Nov 6
Full
Nov 14
Last Quarter

Today's Extremes

State Highs State Lows

Community

WunderPhotos

Upload Photos

1,764,333 photos uploaded!

WunderBlogs® & News

Nearby

Snow Depth

Station Depth Elevation
No new snow has been reported.

Earthquake Activity

City Distance Mag. Time & Date
No recent earthquake activity has been reported nearby.
Minimum magnitude displayed is 2.5.

Coastal Water Temperatures

Place Temperature
No Stations Reporting

Nearby Weather Stations